Time;durP1;ratioP1;P1;durP2;ratioP2;P2;SDS_P1;SDS_P2;PMS_P1;PMS_P2;Temp;Humidity;BMP_temperature;BMP_pressure;BME280_temperature;BME280_humidity;BME280_pressure;Samples;Min_cycle;Max_cycle;Signal;HPM_P1;HPM_P2
2021/11/04 00:01:02;;;;;;;33.67;19.38;;;5.90;99.90;;;;;;5059059;28;20029;-37
2021/11/04 00:03:27;;;;;;;35.67;21.27;;;5.80;99.90;;;;;;5055591;28;20584;-36
2021/11/04 00:05:53;;;;;;;30.98;21.15;;;5.80;99.90;;;;;;5052652;28;20459;-37
2021/11/04 00:08:19;;;;;;;36.88;20.52;;;5.80;99.90;;;;;;5071838;28;20040;-37
2021/11/04 00:10:45;;;;;;;31.55;18.27;;;5.80;99.90;;;;;;5072612;28;20052;-38
2021/11/04 00:13:11;;;;;;;37.08;20.77;;;5.80;99.90;;;;;;5072447;28;20056;-37
2021/11/04 00:15:36;;;;;;;38.10;20.65;;;5.70;99.90;;;;;;5071547;28;20099;-37
2021/11/04 00:18:02;;;;;;;39.20;22.00;;;5.70;99.90;;;;;;5072023;28;20029;-37
2021/11/04 00:20:28;;;;;;;36.05;20.33;;;5.70;99.90;;;;;;5072330;28;20025;-37
2021/11/04 00:22:54;;;;;;;41.22;24.50;;;5.70;99.90;;;;;;5072395;28;20021;-37
2021/11/04 00:25:19;;;;;;;41.38;24.40;;;5.70;99.90;;;;;;5071928;28;20624;-36
2021/11/04 00:27:46;;;;;;;41.35;22.95;;;5.70;99.90;;;;;;5072132;28;20031;-36
2021/11/04 00:30:12;;;;;;;34.38;21.25;;;5.70;99.90;;;;;;5071176;28;20023;-37
2021/11/04 00:32:48;;;;;;;40.33;22.13;;;5.70;99.90;;;;;;5071829;28;20055;-39
2021/11/04 00:35:14;;;;;;;30.83;15.97;;;5.70;99.90;;;;;;5071891;28;20036;-37
2021/11/04 00:37:40;;;;;;;34.20;22.13;;;5.70;99.90;;;;;;5071725;28;20021;-37
2021/11/04 00:40:06;;;;;;;36.88;20.23;;;5.70;99.90;;;;;;5071829;28;20375;-39
2021/11/04 00:42:31;;;;;;;42.28;24.45;;;5.70;99.90;;;;;;5071926;28;20376;-37
2021/11/04 00:44:57;;;;;;;33.75;20.50;;;5.60;99.90;;;;;;5070966;28;20047;-44
2021/11/04 00:47:23;;;;;;;34.92;20.40;;;5.70;99.90;;;;;;5061711;28;20033;-37
2021/11/04 00:49:48;;;;;;;33.72;20.73;;;5.60;99.90;;;;;;5053329;28;20476;-37
2021/11/04 00:52:14;;;;;;;36.67;21.65;;;5.60;99.90;;;;;;5052953;28;20051;-37
2021/11/04 00:54:39;;;;;;;41.17;21.85;;;5.60;99.90;;;;;;5053310;28;20443;-36
2021/11/04 00:57:05;;;;;;;38.92;22.48;;;5.60;99.90;;;;;;5052990;28;20021;-38
2021/11/04 00:59:30;;;;;;;40.17;23.50;;;5.60;99.90;;;;;;5052259;28;20081;-37
2021/11/04 01:01:56;;;;;;;36.90;22.70;;;5.60;99.90;;;;;;5052946;28;20029;-37
2021/11/04 01:04:22;;;;;;;44.92;24.90;;;5.50;99.90;;;;;;5053054;28;20526;-37
2021/11/04 01:06:47;;;;;;;44.55;24.27;;;5.50;99.90;;;;;;5052225;28;20507;-37
2021/11/04 01:09:13;;;;;;;40.80;22.77;;;5.50;99.90;;;;;;5052809;28;20034;-37
2021/11/04 01:11:38;;;;;;;45.58;24.70;;;5.50;99.90;;;;;;5052985;28;20480;-36
2021/11/04 01:14:04;;;;;;;36.75;20.73;;;5.50;99.90;;;;;;5052901;28;20033;-37
2021/11/04 01:16:29;;;;;;;40.10;24.33;;;5.50;99.90;;;;;;5052009;28;20068;-37
2021/11/04 01:18:55;;;;;;;44.42;24.83;;;5.40;99.90;;;;;;5052874;28;20028;-38
2021/11/04 01:21:21;;;;;;;40.63;23.88;;;5.40;99.90;;;;;;5052780;28;20108;-37
2021/11/04 01:23:46;;;;;;;44.13;24.70;;;5.40;99.90;;;;;;5052768;28;20112;-37
2021/11/04 01:26:12;;;;;;;41.60;23.23;;;5.40;99.90;;;;;;5052718;28;20029;-36
2021/11/04 01:28:39;;;;;;;41.65;22.60;;;5.40;99.90;;;;;;5052751;28;20028;-37
2021/11/04 01:31:05;;;;;;;41.10;23.67;;;5.30;99.90;;;;;;5051719;28;20029;-37
2021/11/04 01:33:30;;;;;;;49.60;27.17;;;5.40;99.90;;;;;;5052590;28;20139;-38
2021/11/04 01:35:56;;;;;;;47.17;26.80;;;5.40;99.90;;;;;;5052665;28;20040;-40
2021/11/04 01:38:23;;;;;;;41.65;24.00;;;5.40;99.90;;;;;;5052394;28;20047;-37
2021/11/04 01:40:49;;;;;;;41.00;22.40;;;5.40;99.90;;;;;;5052661;28;20025;-37
2021/11/04 01:43:14;;;;;;;46.33;23.20;;;5.50;99.90;;;;;;5052555;28;20086;-37
2021/11/04 01:45:40;;;;;;;52.05;26.75;;;5.50;99.90;;;;;;5051623;28;20025;-37
2021/11/04 01:48:06;;;;;;;48.70;26.65;;;5.50;99.90;;;;;;5052458;28;20044;-37
2021/11/04 01:50:32;;;;;;;49.70;26.25;;;5.60;99.90;;;;;;5052444;28;20058;-37
2021/11/04 01:52:58;;;;;;;46.85;26.88;;;5.60;99.90;;;;;;5052314;28;20036;-37
2021/11/04 01:55:26;;;;;;;53.63;29.10;;;5.60;99.90;;;;;;5052212;28;20021;-37
2021/11/04 01:57:53;;;;;;;41.70;25.50;;;5.60;99.90;;;;;;5052472;28;20029;-37
2021/11/04 02:00:22;;;;;;;51.00;29.13;;;5.70;99.90;;;;;;5051422;28;20041;-37
2021/11/04 02:02:55;;;;;;;53.03;28.95;;;5.70;99.90;;;;;;5052371;28;20032;-37
2021/11/04 02:05:30;;;;;;;50.33;29.40;;;5.70;99.90;;;;;;5052214;28;20063;-37
2021/11/04 02:08:11;;;;;;;55.85;29.10;;;5.80;99.90;;;;;;5052270;28;20052;-38
2021/11/04 02:10:42;;;;;;;53.95;29.20;;;5.80;99.90;;;;;;5052250;28;20354;-37
2021/11/04 02:13:22;;;;;;;57.97;32.53;;;5.80;99.90;;;;;;5052231;28;20063;-37
2021/11/04 02:15:51;;;;;;;52.13;29.48;;;5.80;99.90;;;;;;5051186;28;20025;-42
2021/11/04 02:18:19;;;;;;;52.00;27.58;;;5.80;99.90;;;;;;5055287;28;20044;-37
2021/11/04 02:21:03;;;;;;;50.85;28.15;;;5.90;99.90;;;;;;5056217;28;20074;-37
2021/11/04 02:23:38;;;;;;;56.78;31.98;;;5.90;99.90;;;;;;5056124;28;20021;-38
2021/11/04 02:26:05;;;;;;;49.70;30.33;;;5.90;99.90;;;;;;5056077;28;20071;-37
2021/11/04 02:28:31;;;;;;;53.33;28.52;;;5.90;99.90;;;;;;5055919;28;20021;-37
2021/11/04 02:30:57;;;;;;;55.15;32.05;;;5.90;99.90;;;;;;5055048;28;20490;-37
2021/11/04 02:33:24;;;;;;;60.28;33.92;;;6.00;99.90;;;;;;5055746;28;20484;-37
2021/11/04 02:35:52;;;;;;;56.67;30.65;;;6.00;99.90;;;;;;5055926;28;20059;-37
2021/11/04 02:38:23;;;;;;;48.88;27.63;;;6.00;99.90;;;;;;5055838;28;20028;-37
2021/11/04 02:40:52;;;;;;;57.83;33.05;;;6.00;99.90;;;;;;5055649;28;20029;-37
2021/11/04 02:43:18;;;;;;;58.72;31.65;;;6.00;99.90;;;;;;5055823;28;20025;-37
2021/11/04 02:45:45;;;;;;;56.05;32.20;;;6.10;99.90;;;;;;5054878;28;20321;-38
2021/11/04 02:48:11;;;;;;;54.75;31.80;;;6.10;99.90;;;;;;5055668;28;20043;-37
2021/11/04 02:50:37;;;;;;;51.35;29.48;;;6.00;99.90;;;;;;5055395;28;20490;-37
2021/11/04 02:53:03;;;;;;;59.60;33.22;;;6.10;99.90;;;;;;5055698;28;20060;-38
2021/11/04 02:55:36;;;;;;;56.25;31.77;;;6.10;99.90;;;;;;5055104;28;20032;-37
2021/11/04 02:58:10;;;;;;;63.65;34.83;;;6.10;99.90;;;;;;5055581;28;20032;-37
2021/11/04 03:00:38;;;;;;;60.70;34.42;;;6.10;99.90;;;;;;5054295;28;20064;-37
2021/11/04 03:03:05;;;;;;;55.00;32.38;;;6.10;99.90;;;;;;5055440;28;20484;-36
2021/11/04 03:05:31;;;;;;;60.85;33.55;;;6.10;99.90;;;;;;5055304;28;20495;-37
2021/11/04 03:07:57;;;;;;;52.10;31.05;;;6.10;99.90;;;;;;5055159;28;20107;-38
2021/11/04 03:10:22;;;;;;;67.78;35.47;;;6.20;99.90;;;;;;5055258;28;20021;-40
2021/11/04 03:12:49;;;;;;;70.05;38.08;;;6.20;99.90;;;;;;5055388;28;20025;-38
2021/11/04 03:15:20;;;;;;;55.75;29.98;;;6.20;99.90;;;;;;5054249;28;20470;-38
2021/11/04 03:17:48;;;;;;;57.45;32.80;;;6.20;99.90;;;;;;5055058;28;20140;-38
2021/11/04 03:20:15;;;;;;;60.78;34.60;;;6.20;99.90;;;;;;5055087;28;20485;-38
2021/11/04 03:22:42;;;;;;;57.78;33.47;;;6.20;99.90;;;;;;5054897;28;20036;-37
2021/11/04 03:25:08;;;;;;;61.75;34.90;;;6.30;99.90;;;;;;5055013;28;20039;-38
2021/11/04 03:27:37;;;;;;;68.88;40.28;;;6.20;99.90;;;;;;5054821;28;20021;-37
2021/11/04 03:30:05;;;;;;;71.07;40.08;;;6.20;99.90;;;;;;5053219;28;20037;-39
2021/11/04 03:32:32;;;;;;;75.10;40.70;;;6.20;99.90;;;;;;5054596;28;20041;-37
2021/11/04 03:34:58;;;;;;;70.75;38.40;;;6.30;99.90;;;;;;5054776;28;20025;-37
2021/11/04 03:37:27;;;;;;;57.47;31.48;;;6.20;99.90;;;;;;5054639;28;20017;-37
2021/11/04 03:39:53;;;;;;;67.78;37.17;;;6.30;99.90;;;;;;5054792;28;20029;-37
2021/11/04 03:42:20;;;;;;;58.90;33.88;;;6.30;99.90;;;;;;5054646;28;20063;-37
2021/11/04 03:44:47;;;;;;;60.25;35.10;;;6.30;99.90;;;;;;5053752;28;20079;-37
2021/11/04 03:47:16;;;;;;;62.45;35.53;;;6.40;99.90;;;;;;5054634;28;20415;-37
2021/11/04 03:49:43;;;;;;;61.95;35.10;;;6.40;99.90;;;;;;5054367;28;20068;-37
2021/11/04 03:52:10;;;;;;;66.68;35.70;;;6.40;99.90;;;;;;5054489;28;20028;-37
2021/11/04 03:54:36;;;;;;;72.22;40.20;;;6.40;99.90;;;;;;5054347;28;20058;-37
2021/11/04 03:57:02;;;;;;;70.68;40.28;;;6.40;99.90;;;;;;5054479;28;20025;-37
2021/11/04 03:59:28;;;;;;;68.03;38.33;;;6.40;99.90;;;;;;5053360;28;20366;-37
2021/11/04 04:01:54;;;;;;;70.75;39.80;;;6.40;99.90;;;;;;5054332;28;20029;-37
2021/11/04 04:04:20;;;;;;;62.33;35.35;;;6.40;99.90;;;;;;5054122;28;20203;-38
2021/11/04 04:06:50;;;;;;;62.05;34.90;;;6.40;99.90;;;;;;5054126;28;20033;-37
2021/11/04 04:09:16;;;;;;;64.72;36.78;;;6.40;99.90;;;;;;5054109;28;20485;-37
2021/11/04 04:11:42;;;;;;;61.05;35.20;;;6.40;99.90;;;;;;5054061;28;20048;-37
2021/11/04 04:14:08;;;;;;;65.78;36.78;;;6.40;99.90;;;;;;5054120;28;20380;-37
2021/11/04 04:16:33;;;;;;;64.30;35.42;;;6.40;99.90;;;;;;5053097;28;20039;-36
2021/11/04 04:18:59;;;;;;;71.20;38.42;;;6.40;99.90;;;;;;5053948;28;20029;-37
2021/11/04 04:21:24;;;;;;;71.22;38.13;;;6.30;99.90;;;;;;5053940;28;20396;-38
2021/11/04 04:23:50;;;;;;;73.28;37.72;;;6.30;99.90;;;;;;5053970;28;20112;-38
2021/11/04 04:26:15;;;;;;;77.70;41.25;;;6.30;99.90;;;;;;5053931;28;20415;-37
2021/11/04 04:28:41;;;;;;;70.28;39.35;;;6.30;99.90;;;;;;5053693;28;20391;-38
2021/11/04 04:31:06;;;;;;;67.97;39.80;;;6.30;99.90;;;;;;5053040;28;20067;-37
2021/11/04 04:33:32;;;;;;;72.50;36.85;;;6.30;99.90;;;;;;5053338;28;20049;-37
2021/11/04 04:35:57;;;;;;;64.10;35.80;;;6.30;99.90;;;;;;5053680;28;20025;-37
2021/11/04 04:38:23;;;;;;;69.00;36.45;;;6.30;99.90;;;;;;5053654;28;20053;-37
2021/11/04 04:40:49;;;;;;;73.03;39.30;;;6.30;99.90;;;;;;5053615;28;20040;-37
2021/11/04 04:43:15;;;;;;;63.75;36.13;;;6.30;99.90;;;;;;5053573;28;20033;-37
2021/11/04 04:45:40;;;;;;;62.13;35.28;;;6.30;99.90;;;;;;5052526;28;20024;-37
2021/11/04 04:48:06;;;;;;;65.25;35.00;;;6.30;99.90;;;;;;5053313;28;20035;-37
2021/11/04 04:50:32;;;;;;;67.60;37.47;;;6.30;99.90;;;;;;5053338;28;20025;-37
2021/11/04 04:52:57;;;;;;;67.45;37.08;;;6.30;99.90;;;;;;5053395;28;20498;-37
2021/11/04 04:55:24;;;;;;;65.68;36.95;;;6.30;99.90;;;;;;5053307;28;20029;-37
2021/11/04 04:57:49;;;;;;;67.63;38.50;;;6.30;99.90;;;;;;5053402;28;20036;-37
2021/11/04 05:00:16;;;;;;;70.47;38.20;;;6.30;99.90;;;;;;5052321;28;20112;-37
2021/11/04 05:02:43;;;;;;;69.70;38.55;;;6.30;99.90;;;;;;5052948;28;20028;-37
2021/11/04 05:05:10;;;;;;;71.53;39.88;;;6.30;99.90;;;;;;5053248;28;20029;-37
2021/11/04 05:07:35;;;;;;;73.28;38.67;;;6.30;99.90;;;;;;5053024;28;20021;-37
2021/11/04 05:10:03;;;;;;;62.80;34.35;;;6.30;99.90;;;;;;5052914;28;20028;-40
2021/11/04 05:12:28;;;;;;;65.05;34.88;;;6.30;99.90;;;;;;5053075;28;20044;-38
2021/11/04 05:14:54;;;;;;;65.55;35.30;;;6.30;99.90;;;;;;5051981;28;20439;-37
2021/11/04 05:17:19;;;;;;;69.45;35.95;;;6.30;99.90;;;;;;5052827;28;20029;-37
2021/11/04 05:19:45;;;;;;;68.10;38.25;;;6.30;99.90;;;;;;5052859;28;20039;-38
2021/11/04 05:22:11;;;;;;;71.40;38.72;;;6.40;99.90;;;;;;5052906;28;20070;-37
2021/11/04 05:24:36;;;;;;;74.57;38.92;;;6.40;99.90;;;;;;5052763;28;20042;-37
2021/11/04 05:27:03;;;;;;;77.13;41.83;;;6.40;99.90;;;;;;5052822;28;20445;-37
2021/11/04 05:29:30;;;;;;;74.95;38.45;;;6.30;99.90;;;;;;5051673;28;20039;-37
2021/11/04 05:32:00;;;;;;;55.85;30.85;;;6.40;99.90;;;;;;5052406;28;20045;-37
2021/11/04 05:34:25;;;;;;;70.55;37.22;;;6.40;99.90;;;;;;5052553;28;20036;-38
2021/11/04 05:36:51;;;;;;;72.22;39.20;;;6.40;99.90;;;;;;5052590;28;20468;-37
2021/11/04 05:39:17;;;;;;;69.97;38.22;;;6.40;99.90;;;;;;5052584;28;20146;-37
2021/11/04 05:41:42;;;;;;;72.95;39.40;;;6.40;99.90;;;;;;5052511;28;20029;-37
2021/11/04 05:44:08;;;;;;;71.25;38.45;;;6.40;99.90;;;;;;5052576;28;20029;-37
2021/11/04 05:46:33;;;;;;;70.75;39.25;;;6.40;99.90;;;;;;5051331;28;20021;-37
2021/11/04 05:48:59;;;;;;;72.70;39.08;;;6.40;99.90;;;;;;5052439;28;20130;-37
2021/11/04 05:51:25;;;;;;;71.22;38.70;;;6.40;99.90;;;;;;5052088;28;20029;-37
2021/11/04 05:53:50;;;;;;;79.30;38.40;;;6.50;99.90;;;;;;5057628;28;20029;-38
2021/11/04 05:56:16;;;;;;;69.10;35.70;;;6.50;99.90;;;;;;5072563;28;20031;-37
2021/11/04 05:58:41;;;;;;;64.65;34.97;;;6.50;99.90;;;;;;5072152;28;20035;-37
2021/11/04 06:01:07;;;;;;;65.38;36.00;;;6.50;99.90;;;;;;5071176;28;20108;-37
2021/11/04 06:03:32;;;;;;;76.55;37.83;;;6.50;99.90;;;;;;5072293;28;20041;-37
2021/11/04 06:05:58;;;;;;;71.85;39.20;;;6.50;99.90;;;;;;5072445;28;20044;-41
2021/11/04 06:08:23;;;;;;;72.22;38.67;;;6.50;99.90;;;;;;5069254;28;20031;-38
2021/11/04 06:10:49;;;;;;;75.10;37.58;;;6.60;99.90;;;;;;5070875;28;20021;-37
2021/11/04 06:13:15;;;;;;;65.70;35.72;;;6.60;99.90;;;;;;5070208;28;20074;-37
2021/11/04 06:15:40;;;;;;;73.97;37.08;;;6.60;99.90;;;;;;5069830;28;20033;-37
2021/11/04 06:18:06;;;;;;;70.40;35.58;;;6.60;99.90;;;;;;5071073;28;20024;-37
2021/11/04 06:20:31;;;;;;;63.08;34.22;;;6.60;99.90;;;;;;5070827;28;20130;-37
2021/11/04 06:22:57;;;;;;;61.95;31.67;;;6.60;99.90;;;;;;5070909;28;20035;-38
2021/11/04 06:25:23;;;;;;;70.25;35.15;;;6.70;99.90;;;;;;5070770;28;20021;-37
2021/11/04 06:27:48;;;;;;;59.95;32.10;;;6.70;99.90;;;;;;5070751;28;20480;-37
2021/11/04 06:30:14;;;;;;;70.45;34.92;;;6.70;99.90;;;;;;5069846;28;20024;-38
2021/11/04 06:32:40;;;;;;;67.25;36.35;;;6.70;99.90;;;;;;5070642;28;20040;-38
2021/11/04 06:35:08;;;;;;;70.93;38.45;;;6.70;99.90;;;;;;5071537;28;20086;-37
2021/11/04 06:37:34;;;;;;;66.05;36.28;;;6.80;99.90;;;;;;5072147;28;20020;-37
2021/11/04 06:39:59;;;;;;;70.07;36.83;;;6.80;99.90;;;;;;5072020;28;20086;-37
2021/11/04 06:42:25;;;;;;;62.80;33.60;;;6.80;99.90;;;;;;5071890;28;20365;-38
2021/11/04 06:44:50;;;;;;;76.38;38.55;;;6.80;99.90;;;;;;5070633;28;20494;-36
2021/11/04 06:47:24;;;;;;;79.32;39.42;;;6.80;99.90;;;;;;5072080;28;20074;-37
2021/11/04 06:49:52;;;;;;;68.43;36.17;;;6.70;99.90;;;;;;5071826;28;20464;-37
2021/11/04 06:52:26;;;;;;;72.18;37.63;;;6.80;99.90;;;;;;5071936;28;20024;-37
2021/11/04 06:54:54;;;;;;;74.18;37.42;;;6.80;99.90;;;;;;5071849;28;20031;-36
2021/11/04 06:57:21;;;;;;;70.28;36.95;;;6.80;99.90;;;;;;5071706;28;20027;-37
2021/11/04 06:59:49;;;;;;;60.67;33.88;;;6.90;99.90;;;;;;5070501;28;20031;-37
2021/11/04 07:02:32;;;;;;;74.30;36.45;;;6.90;99.90;;;;;;5071911;28;20028;-37
2021/11/04 07:04:59;;;;;;;71.70;35.92;;;6.90;99.90;;;;;;5073993;28;20391;-37
2021/11/04 07:07:25;;;;;;;67.38;35.20;;;6.90;99.90;;;;;;5075326;28;20474;-38
2021/11/04 07:09:51;;;;;;;64.70;32.88;;;6.90;99.90;;;;;;5074884;28;20025;-37
2021/11/04 07:12:17;;;;;;;70.32;37.55;;;7.00;99.90;;;;;;5075357;28;20021;-37
2021/11/04 07:14:43;;;;;;;67.38;34.42;;;7.00;99.90;;;;;;5073865;28;20032;-37
2021/11/04 07:17:14;;;;;;;66.10;36.60;;;7.00;99.90;;;;;;5075198;28;20357;-37
2021/11/04 07:19:40;;;;;;;62.45;34.63;;;7.00;99.90;;;;;;5075069;28;20020;-36
2021/11/04 07:22:23;;;;;;;67.43;36.08;;;7.00;99.90;;;;;;5075127;28;20064;-37
2021/11/04 07:25:09;;;;;;;64.05;34.50;;;7.00;99.90;;;;;;5075005;28;20036;-36
2021/11/04 07:27:45;;;;;;;;;;;7.00;99.90;;;;;;5075331;28;20036;-37
2021/11/04 07:30:14;;;;;;;66.60;37.53;;;7.00;99.90;;;;;;5073679;28;19908;-37
2021/11/04 07:32:46;;;;;;;68.22;36.63;;;7.00;99.90;;;;;;5074770;28;20507;-37
2021/11/04 07:35:18;;;;;;;62.53;36.15;;;7.00;99.90;;;;;;5074833;28;20376;-36
2021/11/04 07:37:44;;;;;;;57.55;30.85;;;7.00;99.90;;;;;;5074808;28;20052;-37
2021/11/04 07:40:10;;;;;;;66.72;36.15;;;7.10;99.90;;;;;;5074766;28;20028;-37
2021/11/04 07:42:37;;;;;;;63.15;34.22;;;7.10;99.90;;;;;;5074739;28;20056;-37
2021/11/04 07:45:03;;;;;;;59.58;32.40;;;7.20;99.90;;;;;;5073361;28;20020;-37
2021/11/04 07:47:29;;;;;;;54.92;30.00;;;7.20;99.90;;;;;;5073141;28;20108;-37
2021/11/04 07:49:54;;;;;;;62.05;33.17;;;7.30;99.90;;;;;;5074416;28;20115;-37
2021/11/04 07:52:20;;;;;;;58.35;33.22;;;7.30;99.90;;;;;;5074570;28;20035;-37
2021/11/04 07:54:46;;;;;;;55.55;31.42;;;7.30;99.90;;;;;;5074428;28;20070;-37
2021/11/04 07:57:11;;;;;;;56.97;32.33;;;7.30;99.90;;;;;;5074494;28;20029;-37
2021/11/04 07:59:37;;;;;;;52.20;31.17;;;7.40;99.90;;;;;;5073078;28;20123;-37
2021/11/04 08:02:03;;;;;;;58.30;32.10;;;7.40;99.90;;;;;;5074136;28;20383;-37
2021/11/04 08:04:29;;;;;;;52.50;31.90;;;7.40;99.90;;;;;;5074300;28;20039;-37
2021/11/04 08:06:56;;;;;;;56.72;31.33;;;7.40;99.90;;;;;;5074192;28;20039;-37
2021/11/04 08:09:22;;;;;;;58.60;34.03;;;7.50;99.90;;;;;;5074194;28;20066;-37
2021/11/04 08:11:48;;;;;;;59.20;34.45;;;7.50;99.90;;;;;;5074038;28;20536;-37
2021/11/04 08:14:13;;;;;;;54.45;31.52;;;7.40;99.90;;;;;;5073851;28;20028;-37
2021/11/04 08:16:39;;;;;;;47.28;27.77;;;7.40;99.90;;;;;;5072780;28;20060;-37
2021/11/04 08:19:04;;;;;;;42.95;25.70;;;7.50;99.90;;;;;;5073933;28;20056;-37
2021/11/04 08:21:31;;;;;;;45.75;26.55;;;7.50;99.90;;;;;;5073917;28;20040;-37
2021/11/04 08:23:56;;;;;;;50.38;28.65;;;7.50;99.90;;;;;;5073786;28;20129;-37
2021/11/04 08:26:22;;;;;;;48.53;27.02;;;7.50;99.90;;;;;;5073819;28;20495;-37
2021/11/04 08:28:48;;;;;;;50.63;25.88;;;7.60;99.90;;;;;;5073684;28;20078;-37
2021/11/04 08:31:13;;;;;;;46.42;27.92;;;7.60;99.90;;;;;;5072191;28;20029;-37
2021/11/04 08:33:39;;;;;;;48.40;27.77;;;7.60;99.90;;;;;;5073650;28;20025;-37
2021/11/04 08:36:04;;;;;;;43.58;24.77;;;7.60;99.90;;;;;;5073502;28;20088;-37
2021/11/04 08:38:30;;;;;;;39.75;21.80;;;7.60;99.90;;;;;;5073567;28;20158;-37
2021/11/04 08:40:55;;;;;;;46.63;26.35;;;7.60;99.90;;;;;;5073481;28;20024;-37
2021/11/04 08:43:21;;;;;;;43.42;24.15;;;7.60;99.90;;;;;;5073531;28;20033;-37
2021/11/04 08:45:46;;;;;;;45.80;27.48;;;7.70;99.90;;;;;;5072092;28;20035;-37
2021/11/04 08:48:14;;;;;;;46.95;27.27;;;7.60;99.90;;;;;;5073230;28;20029;-37
2021/11/04 08:50:40;;;;;;;49.53;27.90;;;7.60;99.90;;;;;;5073461;28;20059;-37
2021/11/04 08:53:06;;;;;;;40.22;24.98;;;7.60;99.90;;;;;;5073241;28;20030;-37
2021/11/04 08:55:32;;;;;;;43.67;25.00;;;7.70;99.90;;;;;;5073373;28;20013;-37
2021/11/04 08:57:57;;;;;;;37.47;21.70;;;7.60;99.90;;;;;;5073130;28;20372;-37
2021/11/04 09:00:23;;;;;;;34.92;21.52;;;7.60;99.90;;;;;;5071905;28;20028;-37
2021/11/04 09:02:49;;;;;;;40.70;24.55;;;7.60;99.90;;;;;;5073100;28;20111;-37
2021/11/04 09:05:14;;;;;;;43.22;25.27;;;7.60;99.90;;;;;;5073165;28;20037;-37
2021/11/04 09:07:41;;;;;;;36.60;22.40;;;7.60;99.90;;;;;;5073045;28;20028;-36
2021/11/04 09:10:13;;;;;;;37.00;20.80;;;7.60;99.90;;;;;;5072879;28;20054;-37
2021/11/04 09:12:39;;;;;;;41.90;24.02;;;7.60;99.90;;;;;;5072985;28;20565;-37
2021/11/04 09:15:06;;;;;;;33.60;21.73;;;7.60;99.90;;;;;;5071459;28;20035;-38
2021/11/04 09:17:32;;;;;;;34.13;21.77;;;7.60;99.90;;;;;;5073000;28;20017;-37
2021/11/04 09:19:58;;;;;;;38.95;24.17;;;7.70;99.90;;;;;;5072821;28;20376;-37
2021/11/04 09:22:23;;;;;;;34.65;20.83;;;7.70;99.90;;;;;;5072873;28;20103;-37
2021/11/04 09:24:49;;;;;;;38.47;23.50;;;7.70;99.90;;;;;;5072813;28;20052;-36
2021/11/04 09:27:14;;;;;;;37.33;21.67;;;7.60;99.90;;;;;;5072087;28;20052;-37
2021/11/04 09:29:41;;;;;;;30.17;19.60;;;7.60;99.90;;;;;;5071262;28;20094;-37
2021/11/04 09:32:10;;;;;;;35.58;19.80;;;7.60;99.90;;;;;;5072469;28;20072;-37
2021/11/04 09:34:36;;;;;;;29.58;17.70;;;7.60;99.90;;;;;;5072668;28;20100;-37
2021/11/04 09:37:04;;;;;;;27.75;17.73;;;7.60;99.90;;;;;;5072615;28;20100;-37
2021/11/04 09:39:30;;;;;;;31.48;19.13;;;7.60;99.90;;;;;;5072663;28;20530;-37
2021/11/04 09:41:55;;;;;;;27.50;18.02;;;7.60;99.90;;;;;;5072556;28;20044;-38
2021/11/04 09:44:21;;;;;;;29.48;17.65;;;7.60;99.90;;;;;;5071275;28;20024;-37
2021/11/04 09:46:47;;;;;;;23.50;16.30;;;7.70;99.90;;;;;;5072558;28;20036;-37
2021/11/04 09:49:13;;;;;;;22.30;14.50;;;7.60;99.90;;;;;;5072435;28;20115;-38
2021/11/04 09:51:39;;;;;;;26.02;14.52;;;7.60;99.90;;;;;;5072568;28;20100;-37
2021/11/04 09:54:05;;;;;;;22.00;14.40;;;7.60;99.90;;;;;;5072423;28;20044;-37
2021/11/04 09:56:33;;;;;;;23.40;14.20;;;7.60;99.90;;;;;;5072481;28;20025;-37
2021/11/04 09:58:58;;;;;;;23.30;13.82;;;7.60;99.90;;;;;;5072191;28;20070;-37
2021/11/04 10:01:27;;;;;;;22.15;14.63;;;7.60;99.90;;;;;;5071187;28;20050;-37
2021/11/04 10:03:54;;;;;;;20.50;14.70;;;7.50;99.90;;;;;;5072423;28;20024;-37
2021/11/04 10:06:23;;;;;;;18.40;12.07;;;7.50;99.90;;;;;;5072353;28;20463;-37
2021/11/04 10:08:50;;;;;;;18.77;12.45;;;7.50;99.90;;;;;;5072313;28;20029;-38
2021/11/04 10:11:17;;;;;;;17.58;10.55;;;7.50;99.90;;;;;;5072246;28;20291;-37
2021/11/04 10:13:44;;;;;;;17.13;10.10;;;7.50;99.90;;;;;;5072275;28;20032;-37
2021/11/04 10:16:15;;;;;;;19.70;12.15;;;7.60;99.90;;;;;;5071028;28;20542;-37
2021/11/04 10:18:43;;;;;;;20.10;12.77;;;7.50;99.90;;;;;;5072330;28;20029;-37
2021/11/04 10:21:09;;;;;;;17.20;11.43;;;7.40;99.90;;;;;;5072150;28;20029;-37
2021/11/04 10:23:40;;;;;;;20.17;12.10;;;7.40;99.90;;;;;;5067303;28;20064;-38
2021/11/04 10:26:09;;;;;;;21.85;12.90;;;7.40;99.90;;;;;;5052006;28;20033;-38
2021/11/04 10:28:36;;;;;;;20.35;12.07;;;7.40;99.90;;;;;;5060051;28;20095;-38
2021/11/04 10:31:03;;;;;;;17.45;11.35;;;7.40;99.90;;;;;;5071137;28;20021;-37
2021/11/04 10:33:37;;;;;;;17.98;10.70;;;7.40;99.90;;;;;;5072095;28;20052;-38
2021/11/04 10:36:18;;;;;;;15.65;10.60;;;7.40;99.90;;;;;;5072002;28;20028;-37
2021/11/04 10:38:50;;;;;;;14.55;9.15;;;7.40;99.90;;;;;;5074077;28;20024;-37
2021/11/04 10:41:29;;;;;;;13.52;8.88;;;7.50;99.90;;;;;;5075731;28;20104;-37
2021/11/04 10:43:57;;;;;;;13.40;8.98;;;7.60;99.90;;;;;;5075831;28;20040;-37
2021/11/04 10:46:24;;;;;;;13.68;9.25;;;7.60;99.90;;;;;;5073203;28;20380;-37
2021/11/04 10:48:59;;;;;;;12.70;8.30;;;7.60;99.90;;;;;;5075567;28;20025;-38
2021/11/04 10:51:25;;;;;;;14.57;9.90;;;7.50;99.90;;;;;;5075660;28;20036;-37
2021/11/04 10:54:00;;;;;;;14.60;9.95;;;7.60;99.90;;;;;;5075822;28;20029;-37
2021/11/04 10:56:26;;;;;;;11.52;8.63;;;7.50;99.90;;;;;;5075641;28;20086;-37
2021/11/04 10:58:58;;;;;;;11.98;8.73;;;7.50;99.90;;;;;;5070679;28;20055;-37
2021/11/04 11:01:29;;;;;;;14.93;9.40;;;7.60;99.90;;;;;;5055398;28;20484;-37
2021/11/04 11:04:01;;;;;;;14.43;8.40;;;7.60;99.90;;;;;;5061307;28;20483;-37
2021/11/04 11:06:29;;;;;;;11.15;7.88;;;7.60;99.90;;;;;;5075467;28;20040;-37
2021/11/04 11:08:58;;;;;;;17.13;8.70;;;7.60;99.90;;;;;;5074802;28;20468;-38
2021/11/04 11:11:24;;;;;;;12.55;8.15;;;7.70;99.90;;;;;;5056800;28;20040;-37
2021/11/04 11:13:49;;;;;;;12.75;7.55;;;7.70;99.90;;;;;;5054786;28;20390;-37
2021/11/04 11:16:16;;;;;;;10.13;7.30;;;7.70;99.90;;;;;;5053714;28;20112;-37
2021/11/04 11:18:42;;;;;;;14.32;9.25;;;7.70;99.90;;;;;;5054989;28;20053;-36
2021/11/04 11:21:08;;;;;;;11.15;8.50;;;7.80;99.90;;;;;;5054804;28;20059;-37
2021/11/04 11:23:34;;;;;;;12.02;8.55;;;7.80;99.90;;;;;;5054893;28;20256;-37
2021/11/04 11:26:02;;;;;;;12.35;7.68;;;7.80;99.90;;;;;;5054887;28;20101;-37
2021/11/04 11:28:32;;;;;;;11.27;6.88;;;7.80;99.90;;;;;;5054680;28;20055;-37
2021/11/04 11:31:10;;;;;;;11.07;6.93;;;7.80;99.90;;;;;;5053564;28;20017;-37
2021/11/04 11:34:09;;;;;;;10.57;6.53;;;7.80;99.90;;;;;;5054831;28;20372;-37
2021/11/04 11:36:34;;;;;;;7.82;5.45;;;7.80;99.90;;;;;;5022041;28;20032;-37
2021/11/04 11:39:04;;;;;;;10.73;5.95;;;7.80;99.90;;;;;;5054692;28;20111;-37
2021/11/04 11:41:31;;;;;;;8.20;5.72;;;7.80;99.90;;;;;;5054840;28;20025;-37
2021/11/04 11:43:57;;;;;;;9.88;6.85;;;7.80;99.90;;;;;;5072849;28;20204;-37
2021/11/04 11:46:23;;;;;;;9.25;5.90;;;7.90;99.90;;;;;;5071510;28;20078;-38
2021/11/04 11:49:10;;;;;;;8.18;5.40;;;7.90;99.90;;;;;;5073006;28;20033;-37
2021/11/04 11:51:38;;;;;;;6.55;4.53;;;7.90;99.90;;;;;;5072446;28;20020;-37
2021/11/04 11:54:03;;;;;;;8.35;5.38;;;8.00;99.90;;;;;;5072845;28;20112;-37
2021/11/04 11:56:30;;;;;;;6.50;4.75;;;8.00;99.90;;;;;;5072609;28;20095;-38
2021/11/04 11:59:27;;;;;;;7.03;5.00;;;8.10;99.90;;;;;;5072878;28;20442;-37
2021/11/04 12:01:52;;;;;;;;;;;8.10;99.90;;;;;;5072862;28;20120;-37
2021/11/04 12:04:27;;;;;;;7.13;4.40;;;8.10;99.90;;;;;;5072645;28;19915;-37
2021/11/04 12:07:00;;;;;;;6.00;4.03;;;8.10;99.90;;;;;;5072694;28;20035;-37
2021/11/04 12:09:41;;;;;;;6.80;3.92;;;8.10;99.90;;;;;;5072522;28;20035;-37
2021/11/04 12:12:08;;;;;;;5.35;3.85;;;8.10;99.90;;;;;;5061205;28;20017;-37
2021/11/04 12:14:35;;;;;;;7.03;3.83;;;8.10;99.90;;;;;;5070259;28;20037;-38
2021/11/04 12:17:05;;;;;;;5.20;3.85;;;8.10;99.90;;;;;;5067057;28;20032;-37
2021/11/04 12:19:52;;;;;;;5.20;3.65;;;8.20;99.90;;;;;;5052289;28;20029;-38
2021/11/04 12:22:18;;;;;;;4.70;3.03;;;8.30;99.90;;;;;;5067438;28;20024;-37
2021/11/04 12:24:49;;;;;;;5.97;2.97;;;8.30;99.90;;;;;;5072350;28;20062;-37
2021/11/04 12:27:16;;;;;;;4.72;3.40;;;8.30;99.90;;;;;;5072238;28;20020;-37
2021/11/04 12:29:43;;;;;;;6.63;4.03;;;8.30;99.90;;;;;;5061686;28;20389;-37
2021/11/04 12:32:16;;;;;;;4.30;3.38;;;8.30;99.90;;;;;;5052068;28;20044;-37
2021/11/04 12:34:42;;;;;;;5.13;3.65;;;8.30;99.90;;;;;;5052266;28;20380;-38
2021/11/04 12:37:16;;;;;;;5.63;3.60;;;8.30;99.90;;;;;;5052122;28;20419;-38
2021/11/04 12:39:46;;;;;;;4.30;3.20;;;8.30;99.90;;;;;;5051934;28;20361;-37
2021/11/04 12:42:16;;;;;;;4.55;2.83;;;8.30;99.90;;;;;;5051946;28;20017;-37